Time;durP1;ratioP1;P1;durP2;ratioP2;P2;SDS_P1;SDS_P2;PMS_P1;PMS_P2;Temp;Humidity;BMP_temperature;BMP_pressure;BME280_temperature;BME280_humidity;BME280_pressure;Samples;Min_cycle;Max_cycle;Signal;HPM_P1;HPM_P2
2022/10/23 00:01:22;;;;;;;8.45;6.20;;;21.80;73.50;;;;;;4995487;27;90797;-87
2022/10/23 00:03:52;;;;;;;10.15;6.68;;;21.70;73.50;;;;;;4996266;27;87361;-87
2022/10/23 00:06:18;;;;;;;8.38;6.13;;;21.70;73.40;;;;;;4996605;27;87445;-87
2022/10/23 00:08:46;;;;;;;8.20;6.25;;;21.70;73.50;;;;;;4996803;28;89611;-87
2022/10/23 00:11:14;;;;;;;8.27;6.10;;;21.70;73.60;;;;;;4996538;27;88714;-87
2022/10/23 00:13:40;;;;;;;7.95;6.03;;;21.70;73.40;;;;;;4996078;27;87542;-87
2022/10/23 00:16:07;;;;;;;9.75;5.90;;;21.70;73.40;;;;;;5027685;27;90769;-88
2022/10/23 00:18:33;;;;;;;9.57;6.55;;;21.70;73.50;;;;;;4996084;27;88796;-88
2022/10/23 00:20:59;;;;;;;6.80;5.55;;;21.70;73.60;;;;;;4995040;27;87469;-88
2022/10/23 00:23:24;;;;;;;7.55;6.03;;;21.60;73.50;;;;;;4996470;28;86935;-88
2022/10/23 00:25:50;;;;;;;8.90;6.25;;;21.70;73.60;;;;;;4996294;27;87147;-88
2022/10/23 00:28:16;;;;;;;9.55;6.45;;;21.70;73.50;;;;;;4995913;27;87701;-88
2022/10/23 00:30:41;;;;;;;9.43;6.60;;;21.60;73.60;;;;;;4995875;27;87969;-86
2022/10/23 00:33:08;;;;;;;6.70;5.57;;;21.60;73.80;;;;;;4994131;27;88284;-87
2022/10/23 00:35:33;;;;;;;10.85;5.93;;;21.60;73.50;;;;;;4996283;28;87487;-87
2022/10/23 00:37:59;;;;;;;8.95;6.45;;;21.60;73.80;;;;;;4995955;27;87504;-87
2022/10/23 00:40:24;;;;;;;7.80;6.15;;;21.60;73.90;;;;;;4995728;27;87695;-85
2022/10/23 00:42:50;;;;;;;9.13;6.22;;;21.60;73.70;;;;;;4996186;27;87348;-87
2022/10/23 00:45:25;;;;;;;8.07;6.35;;;21.60;73.60;;;;;;4995406;27;87411;-88
2022/10/23 00:47:51;;;;;;;8.05;6.30;;;21.60;73.70;;;;;;4996167;28;88579;-88
2022/10/23 00:50:19;;;;;;;7.30;5.95;;;21.60;73.70;;;;;;5027584;27;90164;-87
2022/10/23 00:52:48;;;;;;;8.43;5.70;;;21.60;73.20;;;;;;4995869;27;87016;-87
2022/10/23 00:55:15;;;;;;;6.30;5.40;;;21.50;73.20;;;;;;4995378;27;87106;-88
2022/10/23 00:57:43;;;;;;;6.63;5.70;;;21.60;73.30;;;;;;4994712;27;89559;-87
2022/10/23 01:00:14;;;;;;;6.72;5.28;;;21.50;73.40;;;;;;4995260;27;89489;-87
2022/10/23 01:02:40;;;;;;;7.53;5.93;;;21.50;73.30;;;;;;4995527;28;87504;-87
2022/10/23 01:05:07;;;;;;;10.05;5.55;;;21.50;73.30;;;;;;4995493;27;87204;-87
2022/10/23 01:07:44;;;;;;;9.52;6.32;;;21.50;73.30;;;;;;4995609;27;87298;-87
2022/10/23 01:10:35;;;;;;;7.57;5.45;;;21.50;73.20;;;;;;4994864;27;87248;-86
2022/10/23 01:13:22;;;;;;;6.90;5.07;;;21.50;73.20;;;;;;4995337;27;87516;-87
2022/10/23 01:16:05;;;;;;;7.38;5.85;;;21.50;73.10;;;;;;4995036;27;87387;-87
2022/10/23 01:18:42;;;;;;;7.50;5.68;;;21.50;73.10;;;;;;4995016;27;88516;-87
2022/10/23 01:21:20;;;;;;;6.82;5.65;;;21.50;73.20;;;;;;4994302;27;87652;-87
2022/10/23 01:23:55;;;;;;;6.88;5.38;;;21.50;73.50;;;;;;4995189;28;88125;-87
2022/10/23 01:26:46;;;;;;;6.57;5.57;;;21.50;73.50;;;;;;4994974;28;90083;-87
2022/10/23 01:29:28;;;;;;;7.32;5.90;;;21.50;73.50;;;;;;4991885;28;87502;-87
2022/10/23 01:31:59;;;;;;;6.90;5.63;;;21.50;73.40;;;;;;4991260;28;88902;-87
2022/10/23 01:34:40;;;;;;;6.03;5.05;;;21.50;73.40;;;;;;4992014;28;87685;-87
2022/10/23 01:37:12;;;;;;;6.38;5.00;;;21.50;73.30;;;;;;4992343;28;87500;-87
2022/10/23 01:39:44;;;;;;;8.18;5.70;;;21.50;73.30;;;;;;4991690;28;88744;-87
2022/10/23 01:42:15;;;;;;;8.00;5.57;;;21.50;73.40;;;;;;4991865;28;88564;-87
2022/10/23 01:44:53;;;;;;;7.95;5.93;;;21.40;73.50;;;;;;4994796;28;87679;-87
2022/10/23 01:47:23;;;;;;;7.72;5.38;;;21.50;73.60;;;;;;4995670;28;88444;-87
2022/10/23 01:49:51;;;;;;;7.03;5.00;;;21.40;73.30;;;;;;4994414;28;92310;-87
2022/10/23 01:52:18;;;;;;;7.60;5.47;;;21.40;73.50;;;;;;4995553;28;89062;-87
2022/10/23 01:54:46;;;;;;;7.72;5.45;;;21.40;73.60;;;;;;4993430;28;89248;-87
2022/10/23 01:57:16;;;;;;;6.43;5.07;;;21.40;73.40;;;;;;4995595;28;87687;-87
2022/10/23 01:59:47;;;;;;;6.07;4.90;;;21.40;73.40;;;;;;4996269;28;88308;-87
2022/10/23 02:02:14;;;;;;;7.20;5.38;;;21.40;73.20;;;;;;4995678;28;87400;-87
2022/10/23 02:04:50;;;;;;;7.32;5.00;;;21.40;73.30;;;;;;4996009;28;87532;-87
2022/10/23 02:07:15;;;;;;;6.07;4.85;;;21.40;73.20;;;;;;4997893;27;87692;-87
2022/10/23 02:09:41;;;;;;;6.13;5.50;;;21.40;73.30;;;;;;4997839;27;88350;-86
2022/10/23 02:12:11;;;;;;;5.28;4.75;;;21.40;73.30;;;;;;4997714;27;88059;-87
2022/10/23 02:14:51;;;;;;;5.72;4.78;;;21.40;73.30;;;;;;4998421;28;87861;-87
2022/10/23 02:17:55;;;;;;;7.80;5.70;;;21.40;73.20;;;;;;4997877;27;87919;-87
2022/10/23 02:20:47;;;;;;;6.35;5.47;;;21.30;73.30;;;;;;4994768;28;95033;-87
2022/10/23 02:23:15;;;;;;;6.72;5.18;;;21.40;73.30;;;;;;4978013;28;88856;-87
2022/10/23 02:25:52;;;;;;;5.60;4.72;;;21.40;73.50;;;;;;4995830;28;87506;-87
2022/10/23 02:28:24;;;;;;;7.47;5.20;;;21.40;73.30;;;;;;4994813;28;87050;-87
2022/10/23 02:30:50;;;;;;;6.07;4.88;;;21.40;73.40;;;;;;4994944;28;88171;-88
2022/10/23 02:33:17;;;;;;;6.47;4.85;;;21.30;73.10;;;;;;4995615;28;88705;-87
2022/10/23 02:35:45;;;;;;;8.32;5.28;;;21.30;73.10;;;;;;4995708;28;87669;-87
2022/10/23 02:38:29;;;;;;;5.10;4.60;;;21.30;73.20;;;;;;4994390;28;87530;-87
2022/10/23 02:41:02;;;;;;;7.68;5.30;;;21.40;73.40;;;;;;4993394;28;92744;-88
2022/10/23 02:43:40;;;;;;;7.28;5.78;;;21.30;73.40;;;;;;4995096;28;88334;-87
2022/10/23 02:46:27;;;;;;;5.60;4.65;;;21.30;73.10;;;;;;4995227;28;87232;-87
2022/10/23 02:49:22;;;;;;;5.78;4.60;;;21.30;73.10;;;;;;4994688;28;87594;-86
2022/10/23 02:52:02;;;;;;;5.50;4.88;;;21.30;73.30;;;;;;4924858;28;89323;-87
2022/10/23 02:54:38;;;;;;;6.50;5.10;;;21.30;73.10;;;;;;4942024;28;87459;-88
2022/10/23 02:57:25;;;;;;;6.45;5.18;;;21.30;72.90;;;;;;4954806;28;87296;-88
2022/10/23 03:00:14;;;;;;;5.22;4.55;;;21.30;73.20;;;;;;4956606;28;87455;-87
2022/10/23 03:02:44;;;;;;;4.97;4.47;;;21.30;73.00;;;;;;4954896;28;95961;-87
2022/10/23 03:05:13;;;;;;;7.10;5.00;;;21.30;73.00;;;;;;4954952;28;87914;-86
2022/10/23 03:07:39;;;;;;;6.50;4.15;;;21.30;73.10;;;;;;4955092;28;88442;-87
2022/10/23 03:10:07;;;;;;;5.45;4.53;;;21.30;73.10;;;;;;4954051;28;88376;-87
2022/10/23 03:12:33;;;;;;;5.63;4.60;;;21.30;73.00;;;;;;4954267;28;90408;-87
2022/10/23 03:14:59;;;;;;;6.40;4.40;;;21.30;73.10;;;;;;4953872;28;88323;-87
2022/10/23 03:17:24;;;;;;;5.15;4.22;;;21.30;73.00;;;;;;4955791;28;87660;-87
2022/10/23 03:19:50;;;;;;;5.63;4.60;;;21.30;73.30;;;;;;4953901;28;87827;-86
2022/10/23 03:22:16;;;;;;;4.82;4.32;;;21.30;73.90;;;;;;4954495;28;87320;-87
2022/10/23 03:24:42;;;;;;;6.07;4.88;;;21.30;73.20;;;;;;4955337;28;87435;-86
2022/10/23 03:27:07;;;;;;;6.07;4.75;;;21.30;73.00;;;;;;4930057;28;87501;-87
2022/10/23 03:29:33;;;;;;;6.82;4.40;;;21.20;73.20;;;;;;4992125;28;87391;-87
2022/10/23 03:31:58;;;;;;;5.03;4.47;;;21.30;72.90;;;;;;4996073;27;88933;-87
2022/10/23 03:34:24;;;;;;;5.05;4.55;;;21.20;72.90;;;;;;4997044;27;89304;-87
2022/10/23 03:36:50;;;;;;;8.05;4.93;;;21.30;72.90;;;;;;5027781;27;87276;-87
2022/10/23 03:39:16;;;;;;;5.63;4.85;;;21.20;73.00;;;;;;4996621;27;87501;-87
2022/10/23 03:41:41;;;;;;;5.28;4.75;;;21.20;72.90;;;;;;4997244;28;88664;-88
2022/10/23 03:44:07;;;;;;;5.72;4.75;;;21.30;72.90;;;;;;4995420;27;87604;-87
2022/10/23 03:46:33;;;;;;;5.18;4.65;;;21.20;73.00;;;;;;4996659;27;87671;-87
2022/10/23 03:48:58;;;;;;;5.22;4.35;;;21.20;72.90;;;;;;4996567;27;86916;-87
2022/10/23 03:51:25;;;;;;;5.40;4.28;;;21.20;72.90;;;;;;4995741;27;87945;-87
2022/10/23 03:53:51;;;;;;;5.40;4.75;;;21.20;73.00;;;;;;4996469;28;87586;-86
2022/10/23 03:56:16;;;;;;;5.57;4.63;;;21.20;73.00;;;;;;4995289;27;87938;-87
2022/10/23 03:58:42;;;;;;;4.70;4.07;;;21.20;73.00;;;;;;4996583;27;87165;-87
2022/10/23 04:01:08;;;;;;;4.50;4.00;;;21.20;73.10;;;;;;4995668;27;88596;-87
2022/10/23 04:03:33;;;;;;;7.07;4.63;;;21.20;73.10;;;;;;4995971;27;87504;-87
2022/10/23 04:05:59;;;;;;;6.07;4.53;;;21.20;73.20;;;;;;4996402;27;87377;-87
2022/10/23 04:08:25;;;;;;;5.30;4.32;;;21.20;73.00;;;;;;4996229;28;87591;-87
2022/10/23 04:10:50;;;;;;;6.40;4.93;;;21.20;73.20;;;;;;4995776;27;88157;-87
2022/10/23 04:13:16;;;;;;;5.22;4.72;;;21.20;73.20;;;;;;5028601;27;87774;-86
2022/10/23 04:15:48;;;;;;;5.68;4.18;;;21.20;73.10;;;;;;4996100;27;87386;-87
2022/10/23 04:18:13;;;;;;;4.80;4.30;;;21.20;73.00;;;;;;4996379;27;87544;-86
2022/10/23 04:20:39;;;;;;;5.18;3.90;;;21.20;73.20;;;;;;4995770;28;89385;-87
2022/10/23 04:23:04;;;;;;;4.93;4.07;;;21.20;73.10;;;;;;4995167;27;88381;-86
2022/10/23 04:25:30;;;;;;;6.55;4.78;;;21.20;73.20;;;;;;4996384;27;87271;-87
2022/10/23 04:27:56;;;;;;;5.03;4.53;;;21.20;73.10;;;;;;4996097;27;87561;-86
2022/10/23 04:30:21;;;;;;;5.53;4.97;;;21.10;72.90;;;;;;4995844;27;88009;-88
2022/10/23 04:32:50;;;;;;;5.45;4.53;;;21.20;73.20;;;;;;4996315;28;88205;-88
2022/10/23 04:35:17;;;;;;;5.28;4.47;;;21.20;73.20;;;;;;4995399;27;87324;-86
2022/10/23 04:37:42;;;;;;;5.85;3.92;;;21.20;72.60;;;;;;4985448;28;88651;-88
2022/10/23 04:40:08;;;;;;;5.75;4.03;;;21.20;72.50;;;;;;4996136;27;88564;-88
2022/10/23 04:42:34;;;;;;;4.53;3.85;;;21.20;72.60;;;;;;4995558;27;88338;-86
2022/10/23 04:45:00;;;;;;;4.80;3.70;;;21.20;72.70;;;;;;4995448;27;87891;-88
2022/10/23 04:47:25;;;;;;;5.60;3.92;;;21.20;72.40;;;;;;4994859;28;90508;-87
2022/10/23 04:49:51;;;;;;;12.35;4.82;;;21.20;72.50;;;;;;4995767;27;88654;-88
2022/10/23 04:52:16;;;;;;;7.40;4.60;;;21.20;72.60;;;;;;4995647;27;87500;-86
2022/10/23 04:54:42;;;;;;;12.63;4.68;;;21.30;72.10;;;;;;4996172;27;87485;-86
2022/10/23 04:57:08;;;;;;;13.93;5.63;;;21.30;72.10;;;;;;5028096;27;90617;-85
2022/10/23 04:59:33;;;;;;;10.98;4.90;;;21.20;72.40;;;;;;4996017;28;87254;-86
2022/10/23 05:01:59;;;;;;;8.95;4.57;;;21.20;72.80;;;;;;4996217;27;88274;-86
2022/10/23 05:04:25;;;;;;;7.82;4.68;;;21.20;72.80;;;;;;4995792;27;87295;-87
2022/10/23 05:06:50;;;;;;;7.20;4.97;;;21.10;72.80;;;;;;4995512;27;87754;-87
2022/10/23 05:09:16;;;;;;;7.90;4.85;;;21.10;72.70;;;;;;5026378;27;91689;-86
2022/10/23 05:11:41;;;;;;;8.43;4.55;;;21.10;72.80;;;;;;4996629;28;88696;-86
2022/10/23 05:14:07;;;;;;;7.38;4.43;;;21.10;72.70;;;;;;4995245;27;87091;-87
2022/10/23 05:16:51;;;;;;;7.07;4.20;;;21.10;72.80;;;;;;4994185;27;90714;-86
2022/10/23 05:19:23;;;;;;;7.47;4.20;;;21.10;72.70;;;;;;4993738;27;88550;-87
2022/10/23 05:21:54;;;;;;;6.75;4.18;;;21.10;72.50;;;;;;4992053;28;90289;-86
2022/10/23 05:24:24;;;;;;;5.70;3.75;;;21.10;71.90;;;;;;4976064;28;86945;-86
2022/10/23 05:26:51;;;;;;;7.82;4.07;;;21.10;71.20;;;;;;4993931;28;87479;-87
2022/10/23 05:29:18;;;;;;;7.53;3.95;;;21.10;72.40;;;;;;5009074;28;91445;-86
2022/10/23 05:31:44;;;;;;;14.18;4.88;;;21.10;72.60;;;;;;4992480;28;87706;-87
2022/10/23 05:34:13;;;;;;;21.90;5.60;;;21.10;72.40;;;;;;4992568;28;88373;-87
2022/10/23 05:36:39;;;;;;;;;;;21.10;72.30;;;;;;4993074;28;87297;-88
2022/10/23 05:39:04;;;;;;;20.40;5.60;;;21.10;72.50;;;;;;4993733;28;88015;-87
2022/10/23 05:41:30;;;;;;;20.38;5.28;;;21.10;72.40;;;;;;4993675;28;87242;-88
2022/10/23 05:43:56;;;;;;;17.73;4.65;;;21.10;73.30;;;;;;4992438;28;87721;-87
2022/10/23 05:46:24;;;;;;;14.30;5.10;;;21.10;72.60;;;;;;4992745;28;87448;-88
2022/10/23 05:48:50;;;;;;;13.63;5.13;;;21.00;72.50;;;;;;4992098;28;88174;-88
2022/10/23 05:51:20;;;;;;;12.13;4.68;;;21.00;72.80;;;;;;4992627;28;88633;-88
2022/10/23 05:53:47;;;;;;;13.50;4.30;;;21.00;72.70;;;;;;4995506;28;87363;-87
2022/10/23 05:56:12;;;;;;;15.43;4.63;;;21.00;72.50;;;;;;4994064;27;87541;-88
2022/10/23 05:58:38;;;;;;;12.55;4.70;;;21.00;72.60;;;;;;4994195;27;89895;-88
2022/10/23 06:01:06;;;;;;;14.15;5.38;;;21.00;72.70;;;;;;5026656;27;91384;-87
2022/10/23 06:03:32;;;;;;;11.00;5.22;;;21.00;72.60;;;;;;4995301;27;87154;-88
2022/10/23 06:05:58;;;;;;;9.70;4.47;;;21.00;72.80;;;;;;4995014;27;87401;-87
2022/10/23 06:08:24;;;;;;;9.77;4.22;;;21.00;72.70;;;;;;4995645;28;88287;-86
2022/10/23 06:10:49;;;;;;;8.38;4.32;;;21.00;72.60;;;;;;4994703;27;88262;-87
2022/10/23 06:13:15;;;;;;;10.57;4.60;;;21.10;72.20;;;;;;4994243;27;87467;-87
2022/10/23 06:15:40;;;;;;;14.05;4.80;;;21.00;72.40;;;;;;4994553;27;87446;-88
2022/10/23 06:18:06;;;;;;;10.68;4.40;;;21.00;72.40;;;;;;4994477;27;88317;-87
2022/10/23 06:20:36;;;;;;;12.30;4.50;;;21.00;72.40;;;;;;4995516;28;88653;-87
2022/10/23 06:23:01;;;;;;;;;;;21.00;72.50;;;;;;4994544;28;88236;-88
2022/10/23 06:25:27;;;;;;;7.25;3.55;;;21.00;72.40;;;;;;4995620;27;87384;-86
2022/10/23 06:27:52;;;;;;;13.38;5.05;;;21.00;72.50;;;;;;4994146;27;88027;-87
2022/10/23 06:30:18;;;;;;;12.98;4.35;;;21.00;72.70;;;;;;4995459;27;87491;-87
2022/10/23 06:32:44;;;;;;;11.45;3.83;;;21.00;72.60;;;;;;5003381;28;86942;-86
2022/10/23 06:35:09;;;;;;;10.95;5.05;;;21.10;72.40;;;;;;4997372;27;88580;-85
2022/10/23 06:37:35;;;;;;;17.45;6.00;;;21.20;72.30;;;;;;4997666;27;88731;-87
2022/10/23 06:40:00;;;;;;;21.90;6.13;;;21.20;72.10;;;;;;4996517;28;90797;-85
2022/10/23 06:42:26;;;;;;;16.00;5.63;;;21.30;72.20;;;;;;4997930;27;87429;-86
2022/10/23 06:44:51;;;;;;;21.02;6.38;;;21.30;72.30;;;;;;4998467;28;87279;-88
2022/10/23 06:47:17;;;;;;;25.35;7.00;;;21.40;72.50;;;;;;4997738;27;89695;-88
2022/10/23 06:49:43;;;;;;;21.30;7.18;;;21.40;72.30;;;;;;4997426;27;89309;-88
2022/10/23 06:52:08;;;;;;;19.13;6.97;;;21.40;72.10;;;;;;4997945;27;87501;-86
2022/10/23 06:54:34;;;;;;;25.10;7.47;;;21.50;72.10;;;;;;4998986;27;87087;-86
2022/10/23 06:56:59;;;;;;;16.98;6.35;;;21.50;72.00;;;;;;4998309;27;87324;-88
2022/10/23 06:59:25;;;;;;;18.45;7.20;;;21.50;71.70;;;;;;4999506;28;87453;-87
2022/10/23 07:01:50;;;;;;;24.67;7.32;;;21.50;72.10;;;;;;5000779;27;86844;-87
2022/10/23 07:04:16;;;;;;;22.45;6.80;;;21.60;71.50;;;;;;4997278;27;86933;-89
2022/10/23 07:06:42;;;;;;;22.98;7.38;;;21.60;71.90;;;;;;4998938;27;88227;-89
2022/10/23 07:09:16;;;;;;;24.65;7.85;;;21.60;71.80;;;;;;4996508;27;88753;-89
2022/10/23 07:11:42;;;;;;;26.42;7.72;;;21.70;71.30;;;;;;4997785;28;88526;-89
2022/10/23 07:14:07;;;;;;;23.63;7.43;;;21.70;71.40;;;;;;5002677;27;90142;-90
2022/10/23 07:16:33;;;;;;;18.40;6.40;;;21.80;71.50;;;;;;4997592;27;87596;-88
2022/10/23 07:19:00;;;;;;;20.33;6.97;;;21.70;71.70;;;;;;5028916;27;91557;-89
2022/10/23 07:21:31;;;;;;;20.92;6.80;;;21.70;71.80;;;;;;4996332;27;87561;-87
2022/10/23 07:23:57;;;;;;;18.90;6.95;;;21.80;71.70;;;;;;4997634;27;87676;-86
2022/10/23 07:26:23;;;;;;;20.00;7.20;;;21.70;71.30;;;;;;4998071;28;87708;-86
2022/10/23 07:28:54;;;;;;;26.45;7.60;;;21.70;71.00;;;;;;4997464;27;91250;-87
2022/10/23 07:31:24;;;;;;;22.42;7.40;;;21.70;71.20;;;;;;4998054;27;87367;-87
2022/10/23 07:33:50;;;;;;;20.55;6.75;;;21.70;71.30;;;;;;4948720;27;88049;-87
2022/10/23 07:36:17;;;;;;;24.10;6.57;;;21.70;70.40;;;;;;5014772;27;89393;-88
2022/10/23 07:38:43;;;;;;;20.98;6.93;;;21.70;70.10;;;;;;4994953;28;92285;-88
2022/10/23 07:41:18;;;;;;;19.58;6.45;;;21.70;70.00;;;;;;4995726;28;87252;-88
2022/10/23 07:43:44;;;;;;;19.23;6.55;;;21.70;70.10;;;;;;4996121;27;87423;-91
2022/10/23 07:46:10;;;;;;;22.58;6.70;;;21.60;70.10;;;;;;4997431;27;88489;-90
2022/10/23 07:48:36;;;;;;;23.55;6.47;;;21.60;70.00;;;;;;4997114;27;88029;-91
2022/10/23 07:51:07;;;;;;;19.63;5.72;;;21.70;69.50;;;;;;4996803;27;87442;-89
2022/10/23 07:53:34;;;;;;;18.83;5.47;;;21.70;68.40;;;;;;4997999;28;87815;-89
2022/10/23 07:56:30;;;;;;;15.52;5.72;;;21.70;68.80;;;;;;4996292;27;88501;-90
2022/10/23 07:58:56;;;;;;;29.92;6.43;;;21.70;67.40;;;;;;4992479;28;87399;-89
2022/10/23 08:01:30;;;;;;;25.00;5.93;;;21.70;67.90;;;;;;4993335;28;88491;-88
2022/10/23 08:03:56;;;;;;;22.58;5.97;;;21.80;68.20;;;;;;4993181;28;87769;-89
2022/10/23 08:06:21;;;;;;;18.23;5.70;;;21.70;67.80;;;;;;4992894;28;87550;-88
2022/10/23 08:08:47;;;;;;;18.30;6.03;;;21.70;68.20;;;;;;4993820;28;87810;-89
2022/10/23 08:11:16;;;;;;;21.13;6.43;;;21.70;68.40;;;;;;4993530;28;87323;-90
2022/10/23 08:13:43;;;;;;;15.30;5.95;;;21.70;68.80;;;;;;4993216;28;87600;-88
2022/10/23 08:16:09;;;;;;;22.45;6.75;;;21.70;69.30;;;;;;4992683;28;89165;-89
2022/10/23 08:18:34;;;;;;;15.40;4.65;;;21.70;69.20;;;;;;4993264;28;88250;-87
2022/10/23 08:21:02;;;;;;;18.15;5.85;;;21.80;68.10;;;;;;4993540;28;87041;-88
2022/10/23 08:23:28;;;;;;;24.70;5.10;;;21.80;68.20;;;;;;4993775;28;87329;-88
2022/10/23 08:25:59;;;;;;;18.40;5.38;;;22.00;67.80;;;;;;4992418;28;89103;-87
2022/10/23 08:28:25;;;;;;;15.57;4.85;;;21.90;68.20;;;;;;4993172;28;87951;-86
2022/10/23 08:30:51;;;;;;;19.17;5.43;;;21.90;68.10;;;;;;4994229;28;87469;-88
2022/10/23 08:33:16;;;;;;;13.05;4.75;;;21.90;67.80;;;;;;4994105;28;88020;-89
2022/10/23 08:35:42;;;;;;;12.02;4.43;;;21.90;68.30;;;;;;4995670;28;88434;-88
2022/10/23 08:38:09;;;;;;;15.05;4.85;;;21.90;68.30;;;;;;4996258;27;88426;-87
2022/10/23 08:40:35;;;;;;;12.10;4.22;;;21.90;68.30;;;;;;4996484;27;87543;-89
2022/10/23 08:43:10;;;;;;;13.18;4.47;;;21.90;68.40;;;;;;4996511;27;86622;-87
2022/10/23 08:45:47;;;;;;;17.73;5.13;;;21.90;68.50;;;;;;4994593;27;88727;-88
2022/10/23 08:48:18;;;;;;;13.77;4.38;;;21.90;68.90;;;;;;4994878;27;90538;-87
2022/10/23 08:50:49;;;;;;;11.95;3.10;;;22.00;67.20;;;;;;5002798;28;88497;-87
2022/10/23 08:53:24;;;;;;;11.45;3.30;;;22.00;65.20;;;;;;4994134;27;88042;-87
2022/10/23 08:56:01;;;;;;;9.35;3.63;;;22.10;64.40;;;;;;4994843;27;87559;-88
2022/10/23 08:58:44;;;;;;;13.77;3.88;;;22.10;66.40;;;;;;5028246;27;91804;-86
2022/10/23 09:01:41;;;;;;;12.85;3.63;;;22.00;67.20;;;;;;4995951;27;87418;-88
2022/10/23 09:04:10;;;;;;;15.57;4.30;;;21.90;67.80;;;;;;4996047;27;87522;-88
2022/10/23 09:07:13;;;;;;;14.20;4.47;;;21.90;68.10;;;;;;4992944;28;91526;-88
2022/10/23 09:10:02;;;;;;;17.38;5.00;;;22.10;68.50;;;;;;4995649;27;88764;-89
2022/10/23 09:12:29;;;;;;;11.20;4.15;;;22.10;68.70;;;;;;4992974;28;87471;-86
2022/10/23 09:15:01;;;;;;;11.02;4.45;;;22.10;68.90;;;;;;4966838;28;88547;-89
2022/10/23 09:17:39;;;;;;;13.43;4.85;;;22.10;68.70;;;;;;4992430;28;92894;-89
2022/10/23 09:20:36;;;;;;;16.77;5.47;;;22.10;69.10;;;;;;4991294;28;90174;-88
2022/10/23 09:23:18;;;;;;;11.68;4.43;;;22.00;69.50;;;;;;4992169;28;87368;-89
2022/10/23 09:25:45;;;;;;;14.13;3.90;;;21.90;68.90;;;;;;4993322;28;87040;-91
2022/10/23 09:28:21;;;;;;;14.27;3.95;;;21.90;68.70;;;;;;4993358;28;88894;-89
2022/10/23 09:30:48;;;;;;;12.20;4.40;;;22.00;68.60;;;;;;4993014;28;87592;-88
2022/10/23 09:33:20;;;;;;;10.88;3.55;;;22.00;68.30;;;;;;4992975;28;87846;-91
2022/10/23 09:35:53;;;;;;;17.27;4.85;;;22.00;68.40;;;;;;4992666;28;87099;-91
2022/10/23 09:38:45;;;;;;;12.85;5.30;;;21.90;69.10;;;;;;4992673;28;88768;-91
2022/10/23 09:41:35;;;;;;;16.90;5.97;;;21.90;69.60;;;;;;4933323;28;88988;-92
2022/10/23 09:44:06;;;;;;;21.02;6.72;;;21.80;70.10;;;;;;4932089;28;88231;-91
2022/10/23 09:46:55;;;;;;;27.00;6.78;;;21.80;70.40;;;;;;4925548;28;89990;-88
2022/10/23 09:49:22;;;;;;;26.67;7.65;;;21.90;70.30;;;;;;4935001;28;90135;-89
2022/10/23 09:52:04;;;;;;;17.58;6.55;;;21.90;70.00;;;;;;4937384;28;87468;-90
2022/10/23 09:54:33;;;;;;;22.65;5.80;;;22.00;69.50;;;;;;4933470;28;87239;-88
2022/10/23 09:57:18;;;;;;;29.08;7.60;;;21.90;69.50;;;;;;4933903;28;87386;-90
2022/10/23 09:59:53;;;;;;;36.97;10.25;;;21.90;70.20;;;;;;4933745;28;87333;-90
2022/10/23 10:02:31;;;;;;;38.22;9.85;;;21.90;70.90;;;;;;4932688;28;88432;-88
2022/10/23 10:04:57;;;;;;;39.47;10.73;;;21.90;71.00;;;;;;4941631;28;87262;-89
2022/10/23 10:07:26;;;;;;;34.38;9.85;;;21.90;71.50;;;;;;4936741;28;87613;-89
2022/10/23 10:09:53;;;;;;;44.63;11.00;;;21.90;71.70;;;;;;4936062;28;89597;-87
2022/10/23 10:12:38;;;;;;;34.70;9.45;;;21.90;71.70;;;;;;4936043;28;88910;-88
2022/10/23 10:15:16;;;;;;;35.60;9.82;;;21.90;72.00;;;;;;4936646;28;87324;-88
2022/10/23 10:17:50;;;;;;;40.10;10.05;;;21.90;72.20;;;;;;4950861;28;87537;-90
2022/10/23 10:20:31;;;;;;;37.92;8.80;;;21.90;72.20;;;;;;4996933;27;87435;-89
2022/10/23 10:23:26;;;;;;;32.60;9.15;;;22.00;72.10;;;;;;4997798;27;88259;-88
2022/10/23 10:26:14;;;;;;;24.77;7.60;;;22.10;71.50;;;;;;4997954;27;87326;-88
2022/10/23 10:29:01;;;;;;;27.33;8.68;;;22.10;70.90;;;;;;4998008;27;86649;-89
2022/10/23 10:31:42;;;;;;;24.58;8.50;;;22.10;70.60;;;;;;4997860;27;88514;-90
2022/10/23 10:34:37;;;;;;;31.85;7.82;;;22.10;71.30;;;;;;4997714;27;88343;-88
2022/10/23 10:37:32;;;;;;;28.75;7.82;;;22.10;70.70;;;;;;4997084;27;87817;-90
2022/10/23 10:40:22;;;;;;;32.75;8.38;;;22.20;70.60;;;;;;4998033;27;87294;-92
2022/10/23 10:43:17;;;;;;;25.13;8.40;;;22.20;70.40;;;;;;4996176;28;91380;-91
2022/10/23 10:46:35;;;;;;;28.27;8.15;;;22.20;70.70;;;;;;4994047;28;88101;-89
2022/10/23 10:49:12;;;;;;;24.53;7.63;;;22.20;70.90;;;;;;4926653;28;87155;-86
2022/10/23 10:51:56;;;;;;;25.30;8.15;;;22.20;71.10;;;;;;4925635;28;87578;-89
2022/10/23 10:54:27;;;;;;;21.48;7.93;;;22.30;71.20;;;;;;4927612;28;88988;-91
2022/10/23 10:57:28;;;;;;;22.98;7.68;;;22.30;71.00;;;;;;4928566;28;87689;-91
2022/10/23 10:59:56;;;;;;;19.88;7.07;;;22.30;70.90;;;;;;4924934;28;87447;-87
2022/10/23 11:02:57;;;;;;;23.65;7.50;;;22.40;77.40;;;;;;4934718;28;90336;-87
2022/10/23 11:05:36;;;;;;;20.42;6.30;;;22.30;75.60;;;;;;4915366;28;93764;-86
2022/10/23 11:08:13;;;;;;;19.63;6.07;;;22.30;75.60;;;;;;4911837;28;89227;-86
2022/10/23 11:10:43;;;;;;;15.50;5.65;;;22.30;74.30;;;;;;4915836;28;87247;-86
2022/10/23 11:13:25;;;;;;;15.68;5.90;;;22.20;72.50;;;;;;4895236;28;90794;-86
2022/10/23 11:15:55;;;;;;;13.27;5.60;;;22.20;71.50;;;;;;4913906;28;88405;-87
2022/10/23 11:18:27;;;;;;;28.55;5.68;;;22.10;70.00;;;;;;4906742;28;88512;-87
2022/10/23 11:21:21;;;;;;;18.23;5.50;;;22.10;69.80;;;;;;4917509;28;87295;-88
2022/10/23 11:23:52;;;;;;;21.15;6.63;;;22.00;70.10;;;;;;4896881;28;91618;-87
2022/10/23 11:26:29;;;;;;;14.48;5.88;;;22.00;70.30;;;;;;4938494;28;88904;-88
2022/10/23 11:29:30;;;;;;;14.20;5.70;;;22.00;70.70;;;;;;4946607;28;88730;-88
2022/10/23 11:32:07;;;;;;;16.13;5.60;;;22.00;70.70;;;;;;4915483;28;88161;-89
2022/10/23 11:34:33;;;;;;;13.00;5.75;;;22.10;70.90;;;;;;4916060;28;87573;-87
2022/10/23 11:37:03;;;;;;;19.45;5.72;;;22.10;71.70;;;;;;4915885;28;88562;-88
2022/10/23 11:39:31;;;;;;;17.42;4.97;;;22.00;71.00;;;;;;4909183;28;88228;-88
2022/10/23 11:42:04;;;;;;;13.90;4.93;;;22.00;71.20;;;;;;4951556;28;87267;-87
2022/10/23 11:44:47;;;;;;;20.40;5.93;;;21.90;71.40;;;;;;4955557;28;87316;-87
2022/10/23 11:47:35;;;;;;;16.67;5.32;;;21.90;71.60;;;;;;4955124;28;87820;-88
2022/10/23 11:50:06;;;;;;;13.38;5.28;;;21.90;71.60;;;;;;4954428;28;88320;-87
2022/10/23 11:52:34;;;;;;;14.13;4.82;;;21.80;71.60;;;;;;4955852;28;87314;-88
2022/10/23 11:55:03;;;;;;;16.33;5.65;;;21.80;71.60;;;;;;4954544;28;87343;-88
2022/10/23 11:57:28;;;;;;;17.15;5.18;;;21.80;71.70;;;;;;4953959;28;92954;-87
2022/10/23 11:59:55;;;;;;;14.70;5.90;;;21.80;71.80;;;;;;4955525;28;89377;-88
2022/10/23 12:02:36;;;;;;;12.65;5.80;;;21.80;71.90;;;;;;4954911;28;87143;-88
2022/10/23 12:05:23;;;;;;;19.73;5.80;;;21.80;71.80;;;;;;4954782;28;87755;-88
2022/10/23 12:07:54;;;;;;;11.77;5.40;;;21.80;71.90;;;;;;4957654;28;88627;-88
2022/10/23 12:10:29;;;;;;;14.90;5.32;;;21.80;71.90;;;;;;4996828;27;87980;-88
2022/10/23 12:13:00;;;;;;;17.67;5.93;;;21.80;71.80;;;;;;4996779;27;87492;-88
2022/10/23 12:15:27;;;;;;;10.70;4.93;;;21.80;72.00;;;;;;4995542;27;86582;-88
2022/10/23 12:18:13;;;;;;;16.13;5.88;;;21.70;72.00;;;;;;5028795;28;90640;-87
2022/10/23 12:20:55;;;;;;;14.60;5.07;;;21.70;71.90;;;;;;4995673;28;91954;-88
2022/10/23 12:23:20;;;;;;;13.85;4.70;;;21.70;72.00;;;;;;4996075;27;88357;-88
2022/10/23 12:26:13;;;;;;;14.20;5.38;;;21.80;72.10;;;;;;4996330;27;87416;-88
2022/10/23 12:28:48;;;;;;;15.90;5.18;;;21.70;71.80;;;;;;4991662;28;88681;-88
2022/10/23 12:31:25;;;;;;;17.95;5.85;;;21.70;72.20;;;;;;4992644;28;88164;-88
2022/10/23 12:34:29;;;;;;;13.07;4.85;;;21.70;71.80;;;;;;4992528;28;86908;-88
2022/10/23 12:37:14;;;;;;;15.13;5.68;;;21.70;71.90;;;;;;4933049;28;87470;-88
2022/10/23 12:39:39;;;;;;;14.35;4.85;;;21.70;71.80;;;;;;4933103;28;87701;-88
2022/10/23 12:42:25;;;;;;;16.83;5.50;;;21.70;71.80;;;;;;4933837;28;88918;-87
2022/10/23 12:45:02;;;;;;;10.82;5.10;;;21.70;71.80;;;;;;4934732;28;87617;-88
2022/10/23 12:47:29;;;;;;;13.23;5.00;;;21.70;71.80;;;;;;4934033;28;91731;-87
2022/10/23 12:49:54;;;;;;;13.88;5.63;;;21.70;71.80;;;;;;4933494;28;88417;-88
2022/10/23 12:52:23;;;;;;;12.55;4.68;;;21.70;71.80;;;;;;4933057;28;89455;-90
2022/10/23 12:54:50;;;;;;;11.37;4.60;;;21.70;71.80;;;;;;4934106;28;87184;-88
2022/10/23 12:57:27;;;;;;;11.13;5.03;;;21.60;71.80;;;;;;4933218;28;87505;-88
2022/10/23 13:00:11;;;;;;;14.60;4.85;;;21.70;71.80;;;;;;4934713;28;88519;-88
2022/10/23 13:02:37;;;;;;;12.13;4.90;;;21.60;71.90;;;;;;4933512;28;92629;-88
2022/10/23 13:05:07;;;;;;;12.27;4.53;;;21.60;71.90;;;;;;4917247;28;87215;-87